Euclides da Cunha Paulista, Brazil
Current Conditions -  °F | °C
As of 9:00 PM on Saturday 25 Oct 2014 (Local Time) from SBMG Reporting Station
Clear Clear  
Wind Chill: 73°   Ceiling: Unl
Heat Index: 73°   Visibility: 6mi
Dew Point: 64°   Wind: 6mph
Humidity: 73%   Direction: 30°NNE
Pressure: 29.94"   Gusts: NA
Location:  22.56°S, 52.59°W
Report Text: SBMG 252300Z 03005KT CAVOK 23/18 Q1014
Loading
Personal Weather Stations






























Interactive Weather Map
Tropical Storm Tracking
New forecast layout! Learn more

10-Day Weather Forecast

Advertisements
Track Severe Weather on mobile